Glacier Park International Airport Kalispell US
ICAO: KGPI
IATA: FCA
Category: Medium
Scheduled Services: Yes

Elevation: 2977 ft
TransAlt. 18000 ft.

Airport Communications:
ATIS:132.625
SALT LAKE CITY CNTR:133.4
CTAF:124.55
GND:121.6
GREAT FALLS RDO:122.5
TWR:124.55
UNICOM:122.95

KGPI Zoom In..

Runways:

(A) RW 02 length 9007 ft width 150 ft
ILS 111.50 / hdg 20

(B) RW 12 length 3504 ft width 75 ft
---- / hdg 121

(C) RW 20 length 9007 ft width 150 ft
---- / hdg 200

(D) RW 30 length 3504 ft width 75 ft
---- / hdg 301

Location; KGPI
Day. 07 / Time. 14.55 Zulu
* Altimeter: 30.00
* Temperature: 14° c. 57.2°f.
* Wind from: 210° Speed 11 kn.
Dewpoint: 05° c.
Visibility: 10 Statute Miles.
Clouds: Few 6000 ft.

KGPI 071455Z 21011KT 10SM FEW060 14/05 A3000 RMK AO2 SLP148 T01440050 51020

Going to: --> -->


Wind From 210°
Speed 11 kn.

 
 
jpsmedia worldairports.se 2020   terms of use